Time;durP1;ratioP1;P1;durP2;ratioP2;P2;SDS_P1;SDS_P2;PMS_P1;PMS_P2;Temp;Humidity;BMP_temperature;BMP_pressure;BME280_temperature;BME280_humidity;BME280_pressure;Samples;Min_cycle;Max_cycle;Signal;HPM_P1;HPM_P2
2022/07/07 06:49:19;;;;;;;4.20;2.10;;;;;;;18.29;60.20;99421.19;5113300;27;1975178;-80
2022/07/07 06:51:45;;;;;;;3.70;1.35;;;;;;;18.26;57.97;99427.16;5169178;27;20042;-80
2022/07/07 06:54:12;;;;;;;5.85;1.30;;;;;;;18.22;58.35;99415.78;5169642;27;20137;-80
2022/07/07 06:56:39;;;;;;;4.20;1.35;;;;;;;18.10;60.30;99410.19;5165954;27;20634;-79
2022/07/07 06:59:05;;;;;;;8.75;1.33;;;;;;;18.39;58.21;99425.09;5158685;27;20051;-79
2022/07/07 07:01:32;;;;;;;1.52;1.00;;;;;;;18.53;59.30;99422.19;5150369;27;20054;-79
2022/07/07 07:03:58;;;;;;;4.30;1.35;;;;;;;18.68;60.19;99428.16;5148419;27;20047;-79
2022/07/07 07:06:28;;;;;;;2.63;1.20;;;;;;;18.42;55.59;99411.97;5146813;27;20097;-80
2022/07/07 07:08:54;;;;;;;2.58;1.45;;;;;;;18.70;56.38;99434.25;5163382;27;20046;-79
2022/07/07 07:11:21;;;;;;;2.00;0.95;;;;;;;18.89;54.84;99432.34;5170341;27;20420;-79
2022/07/07 07:13:48;;;;;;;4.55;1.00;;;;;;;18.92;54.26;99409.84;5169250;27;20046;-78
2022/07/07 07:16:15;;;;;;;1.80;1.35;;;;;;;18.93;53.92;99428.03;5170005;27;20119;-80
2022/07/07 07:18:41;;;;;;;4.82;1.13;;;;;;;18.91;53.74;99438.47;5169540;27;20054;-79
2022/07/07 07:21:08;;;;;;;5.10;1.30;;;;;;;18.75;55.18;99434.38;5161726;27;20047;-78
2022/07/07 07:23:37;;;;;;;3.65;0.80;;;;;;;18.62;55.78;99434.56;5152330;27;20045;-78
2022/07/07 07:26:04;;;;;;;9.33;1.40;;;;;;;18.67;55.73;99431.97;5152227;27;20476;-79
2022/07/07 07:28:30;;;;;;;4.35;1.83;;;;;;;18.72;54.83;99418.34;5150503;27;20386;-79
2022/07/07 07:30:57;;;;;;;9.45;1.40;;;;;;;19.01;55.83;99440.63;5169594;27;20043;-79
2022/07/07 07:33:24;;;;;;;5.93;1.15;;;;;;;19.20;56.30;99440.59;5157964;27;20479;-79
2022/07/07 07:35:50;;;;;;;9.07;1.10;;;;;;;19.03;54.84;99444.03;5169240;27;20050;-79
2022/07/07 07:38:17;;;;;;;9.80;1.70;;;;;;;18.84;55.16;99423.91;5169559;27;20042;-79
2022/07/07 07:40:45;;;;;;;11.60;1.45;;;;;;;18.75;56.73;99450.09;5157003;27;20393;-79
2022/07/07 07:43:12;;;;;;;7.90;1.25;;;;;;;18.65;56.30;99460.78;5168443;27;20042;-79
2022/07/07 07:45:39;;;;;;;21.80;2.72;;;;;;;18.49;56.62;99451.28;5169152;27;20042;-79
2022/07/07 07:48:06;;;;;;;9.70;1.98;;;;;;;18.46;58.10;99457.22;5169187;27;20050;-79
2022/07/07 07:50:35;;;;;;;10.18;1.40;;;;;;;18.44;57.23;99476.72;5151497;27;20042;-79
2022/07/07 07:53:04;;;;;;;9.43;1.60;;;;;;;18.27;58.24;99450.88;5156579;27;20042;-79
2022/07/07 07:55:31;;;;;;;6.60;1.45;;;;;;;18.32;58.45;99460.13;5155081;27;20496;-79
2022/07/07 07:57:59;;;;;;;8.88;1.45;;;;;;;18.42;58.30;99465.09;5155555;27;20050;-79
2022/07/07 08:00:26;;;;;;;16.95;2.50;;;;;;;18.58;60.11;99455.38;5155110;27;20085;-79
2022/07/07 08:02:52;;;;;;;7.72;1.52;;;;;;;18.63;59.48;99450.03;5150297;27;20404;-79
2022/07/07 08:05:19;;;;;;;11.60;2.10;;;;;;;18.82;58.99;99442.59;5131678;27;20043;-79
2022/07/07 08:07:46;;;;;;;13.23;1.80;;;;;;;18.83;58.53;99440.66;5147096;27;20054;-81
2022/07/07 08:10:14;;;;;;;14.70;1.67;;;;;;;18.86;57.57;99441.09;5154843;27;20046;-81
2022/07/07 08:12:42;;;;;;;6.35;1.42;;;;;;;18.88;58.07;99432.59;5136773;27;20478;-80
2022/07/07 08:15:11;;;;;;;3.95;1.17;;;;;;;18.81;57.76;99415.28;5131569;27;20047;-80
2022/07/07 08:17:38;;;;;;;7.00;2.43;;;;;;;18.91;58.20;99441.22;5134044;27;20058;-80
2022/07/07 08:20:05;;;;;;;5.47;1.65;;;;;;;19.12;58.01;99438.16;5131062;27;20304;-80
2022/07/07 08:22:32;;;;;;;4.28;1.20;;;;;;;19.10;57.77;99449.44;5141568;27;20043;-80
2022/07/07 08:24:59;;;;;;;6.03;1.30;;;;;;;19.16;57.33;99444.91;5150741;27;20496;-79
2022/07/07 08:27:26;;;;;;;7.00;1.55;;;;;;;19.15;57.80;99437.69;5154813;27;20453;-79
2022/07/07 08:29:52;;;;;;;4.10;1.42;;;;;;;19.15;59.04;99445.97;5149297;27;20061;-80
2022/07/07 08:32:21;;;;;;;3.55;1.08;;;;;;;19.10;58.19;99432.88;5144127;27;20148;-80
2022/07/07 08:34:47;;;;;;;7.28;1.10;;;;;;;19.26;57.49;99428.63;5153979;27;20104;-80
2022/07/07 08:37:14;;;;;;;1.90;1.17;;;;;;;19.42;57.89;99427.09;5135013;27;20053;-80
2022/07/07 08:39:40;;;;;;;7.93;1.55;;;;;;;19.53;58.05;99408.94;5147929;27;20046;-80
2022/07/07 08:42:07;;;;;;;9.10;2.70;;;;;;;19.78;56.89;99414.22;5153759;27;20043;-79
2022/07/07 08:44:34;;;;;;;8.43;1.63;;;;;;;19.88;55.67;99411.72;5154262;27;20042;-80
2022/07/07 08:47:01;;;;;;;2.97;1.58;;;;;;;19.94;56.56;99423.72;5127776;27;20039;-80
2022/07/07 08:49:29;;;;;;;4.50;2.22;;;;;;;20.11;56.64;99421.94;5116217;27;20389;-80
2022/07/07 08:51:57;;;;;;;16.95;2.85;;;;;;;20.66;56.47;99415.09;5124152;27;20479;-80
2022/07/07 08:54:25;;;;;;;8.57;2.63;;;;;;;20.98;55.12;99405.50;5144486;27;20050;-80
2022/07/07 08:56:53;;;;;;;7.95;2.33;;;;;;;20.79;54.81;99407.59;5154085;27;20065;-80
2022/07/07 08:59:19;;;;;;;12.70;2.40;;;;;;;20.23;56.66;99421.06;5154188;27;20069;-81
2022/07/07 09:01:54;;;;;;;8.98;2.03;;;;;;;20.01;57.69;99416.16;5142080;27;20442;-81
2022/07/07 09:04:21;;;;;;;3.38;1.90;;;;;;;19.80;59.04;99443.25;5131777;27;20051;-81
2022/07/07 09:06:54;;;;;;;4.47;2.10;;;;;;;19.83;59.79;99441.97;5134201;27;20058;-80
2022/07/07 09:09:29;;;;;;;3.30;1.85;;;;;;;19.86;60.34;99435.09;5134686;27;20051;-80
2022/07/07 09:12:01;;;;;;;3.92;1.50;;;;;;;19.68;60.85;99453.41;5139434;27;20047;-81
2022/07/07 09:14:35;;;;;;;6.55;1.67;;;;;;;19.60;62.38;99451.00;5137846;27;20099;-80
2022/07/07 09:17:02;;;;;;;3.72;1.15;;;;;;;19.42;64.12;99432.63;5153662;27;20044;-80
2022/07/07 09:19:28;;;;;;;5.43;1.70;;;;;;;19.39;65.29;99444.13;5153660;27;20225;-82
2022/07/07 09:21:56;;;;;;;2.40;1.38;;;;;;;19.28;65.09;99438.38;5153436;27;20047;-81
2022/07/07 09:24:23;;;;;;;2.78;1.33;;;;;;;19.27;65.48;99433.91;5153244;27;20043;-81
2022/07/07 09:26:53;;;;;;;3.55;1.23;;;;;;;19.34;66.00;99439.31;5135605;27;20450;-80
2022/07/07 09:29:20;;;;;;;4.28;1.30;;;;;;;19.38;67.85;99446.03;5152374;27;20111;-81
2022/07/07 09:31:55;;;;;;;7.07;1.75;;;;;;;19.30;67.68;99448.28;5153338;27;20042;-81
2022/07/07 09:34:23;;;;;;;4.57;1.70;;;;;;;19.14;67.60;99447.88;5152990;27;20054;-80
2022/07/07 09:39:45;;;;;;;5.53;1.95;;;;;;;18.95;68.17;99449.84;5153401;27;20111;-80
2022/07/07 09:42:19;;;;;;;5.10;1.90;;;;;;;18.65;69.90;99436.00;5140626;27;20095;-81
2022/07/07 09:44:47;;;;;;;15.20;1.92;;;;;;;18.73;72.30;99436.53;5153131;27;20054;-81
2022/07/07 09:47:14;;;;;;;4.50;1.48;;;;;;;18.41;81.63;99449.63;5153436;27;20046;-82
2022/07/07 09:49:42;;;;;;;5.38;1.95;;;;;;;18.41;84.26;99452.38;5152995;27;20055;-81
2022/07/07 09:52:15;;;;;;;5.57;1.55;;;;;;;18.43;85.86;99447.50;5152356;27;20059;-81
2022/07/07 09:54:48;;;;;;;5.35;1.75;;;;;;;18.51;85.94;99438.94;5149192;27;20046;-81
2022/07/07 09:57:15;;;;;;;8.32;1.77;;;;;;;18.60;84.84;99424.88;5146211;27;20078;-81
2022/07/07 09:59:42;;;;;;;6.38;1.63;;;;;;;18.75;80.53;99461.09;5138215;27;20058;-81
2022/07/07 10:02:17;;;;;;;5.30;2.03;;;;;;;18.95;80.93;99452.59;5131459;27;20062;-81
2022/07/07 10:04:45;;;;;;;2.55;1.70;;;;;;;18.99;75.25;99461.25;5126931;27;20062;-82
2022/07/07 10:07:14;;;;;;;7.45;1.67;;;;;;;18.72;73.92;99454.13;5131994;27;20051;-81
2022/07/07 10:09:44;;;;;;;3.17;1.52;;;;;;;19.03;73.94;99460.56;5134923;27;20043;-81
2022/07/07 10:12:11;;;;;;;;;;;;;;;19.21;73.51;99459.66;5132265;27;20481;-80
2022/07/07 10:14:43;;;;;;;5.05;1.45;;;;;;;19.49;70.27;99446.31;5131848;27;19919;-81
2022/07/07 10:17:11;;;;;;;4.97;1.85;;;;;;;19.50;68.44;99446.06;5133090;27;20046;-81
2022/07/07 10:19:39;;;;;;;6.07;1.75;;;;;;;19.61;68.84;99461.78;5136020;27;20046;-80
2022/07/07 10:22:07;;;;;;;7.10;1.60;;;;;;;19.80;67.06;99470.84;5143340;27;20042;-80
2022/07/07 10:24:35;;;;;;;7.13;1.95;;;;;;;19.79;66.89;99471.09;5130440;27;20047;-80
2022/07/07 10:27:05;;;;;;;2.85;1.35;;;;;;;19.88;67.57;99453.09;5131851;27;20051;-79
2022/07/07 10:29:41;;;;;;;2.83;1.30;;;;;;;19.83;65.24;99461.28;5132087;27;20043;-81
2022/07/07 10:32:08;;;;;;;4.32;1.58;;;;;;;20.11;65.72;99465.22;5131473;27;20452;-80
2022/07/07 10:34:37;;;;;;;2.90;1.50;;;;;;;20.05;65.46;99461.50;5135544;27;20050;-80
2022/07/07 10:37:06;;;;;;;5.43;1.70;;;;;;;20.03;64.76;99465.59;5144007;27;20043;-80
2022/07/07 10:39:37;;;;;;;5.25;1.63;;;;;;;20.18;64.23;99468.72;5135100;27;20669;-81
2022/07/07 10:42:07;;;;;;;2.03;1.63;;;;;;;20.34;64.79;99470.75;5148724;27;20054;-81
2022/07/07 10:44:35;;;;;;;;;;;;;;;20.39;63.87;99467.25;5153529;27;20160;-81
2022/07/07 10:47:05;;;;;;;4.00;1.70;;;;;;;20.39;63.70;99470.00;5152325;27;20282;-80
2022/07/07 10:49:40;;;;;;;4.25;1.90;;;;;;;20.48;63.90;99465.78;5140882;27;20043;-81
2022/07/07 10:52:11;;;;;;;4.03;1.40;;;;;;;20.77;64.33;99456.75;5148911;27;20046;-80
2022/07/07 10:54:40;;;;;;;3.35;1.73;;;;;;;20.82;65.44;99456.84;5151021;27;20050;-80
2022/07/07 10:57:12;;;;;;;2.17;1.47;;;;;;;20.47;65.35;99469.66;5137268;27;20043;-79
2022/07/07 11:00:06;;;;;;;3.70;1.73;;;;;;;20.31;64.63;99470.41;5132272;28;20253;-80
2022/07/07 11:02:35;;;;;;;6.43;1.98;;;;;;;20.08;66.11;99480.38;5125880;27;20039;-81
2022/07/07 11:05:03;;;;;;;3.40;1.63;;;;;;;20.12;66.67;99470.50;5128105;27;20038;-81
2022/07/07 11:07:30;;;;;;;5.18;1.70;;;;;;;20.04;66.70;99468.13;5144502;27;20057;-83
2022/07/07 11:09:58;;;;;;;4.90;1.73;;;;;;;19.86;67.40;99451.66;5156286;27;20039;-79
2022/07/07 11:12:36;;;;;;;3.97;1.60;;;;;;;19.78;67.48;99467.50;5144783;27;20039;-81
2022/07/07 11:15:35;;;;;;;4.97;1.95;;;;;;;19.86;69.82;99477.34;5131691;27;20198;-80
2022/07/07 11:18:14;;;;;;;2.85;1.58;;;;;;;19.89;69.10;99476.03;5138842;27;20055;-80
2022/07/07 11:20:56;;;;;;;2.67;1.60;;;;;;;19.83;69.51;99472.31;5152107;27;20050;-79
2022/07/07 11:23:23;;;;;;;13.52;2.08;;;;;;;19.74;68.94;99465.44;5151386;27;20047;-80
2022/07/07 11:25:55;;;;;;;4.63;2.08;;;;;;;19.53;69.29;99467.66;5152190;27;20050;-81
2022/07/07 11:28:23;;;;;;;2.83;1.70;;;;;;;19.44;69.71;99444.28;5155324;27;20061;-81
2022/07/07 11:30:50;;;;;;;2.55;1.63;;;;;;;19.54;69.83;99474.00;5141380;27;20051;-81
2022/07/07 11:33:22;;;;;;;7.43;1.90;;;;;;;19.87;68.34;99472.66;5125794;27;20043;-81
2022/07/07 11:35:48;;;;;;;5.60;1.45;;;;;;;20.08;68.23;99465.69;5155673;27;20058;-79
2022/07/07 11:38:15;;;;;;;6.05;2.63;;;;;;;19.98;67.00;99477.34;5155763;27;20057;-81
2022/07/07 11:40:42;;;;;;;6.03;1.50;;;;;;;20.25;66.76;99472.19;5155797;27;20062;-81
2022/07/07 11:43:21;;;;;;;3.83;1.75;;;;;;;20.35;64.58;99471.56;5154759;27;20443;-81
2022/07/07 11:45:47;;;;;;;6.63;1.30;;;;;;;20.54;64.08;99474.22;5149924;27;20560;-81
2022/07/07 11:48:21;;;;;;;5.03;1.80;;;;;;;20.72;63.65;99473.25;5146000;27;20058;-81
2022/07/07 11:50:49;;;;;;;2.47;1.50;;;;;;;20.99;64.24;99471.56;5153763;27;20050;-79
2022/07/07 11:53:15;;;;;;;2.00;1.50;;;;;;;20.80;63.37;99462.63;5149028;27;20039;-78
2022/07/07 11:55:43;;;;;;;3.42;1.40;;;;;;;20.67;62.72;99466.50;5155936;27;20042;-80
2022/07/07 11:58:17;;;;;;;7.75;2.30;;;;;;;20.63;63.26;99475.50;5155787;27;20050;-81
2022/07/07 12:00:43;;;;;;;6.20;2.05;;;;;;;20.42;63.02;99441.91;5155876;27;20138;-81
2022/07/07 12:05:55;;;;;;;3.80;2.13;;;;;;;20.20;64.27;99438.94;5153757;27;20047;-80
2022/07/07 12:08:21;;;;;;;3.45;1.55;;;;;;;20.20;65.20;99462.94;5137874;27;20110;-79
2022/07/07 12:10:51;;;;;;;6.65;1.70;;;;;;;20.40;65.04;99468.94;5145623;27;20107;-80
2022/07/07 12:13:17;;;;;;;2.10;1.45;;;;;;;20.54;65.29;99474.22;5145757;27;20504;-80
2022/07/07 12:15:53;;;;;;;3.38;1.50;;;;;;;20.55;64.43;99482.25;5155169;27;20482;-83
2022/07/07 12:18:24;;;;;;;3.58;1.58;;;;;;;20.37;65.23;99494.28;5155658;27;20133;-80
2022/07/07 12:20:59;;;;;;;4.97;1.70;;;;;;;20.58;66.99;99480.91;5155154;27;20115;-81
2022/07/07 12:23:25;;;;;;;18.30;2.13;;;;;;;20.40;65.77;99487.41;5135721;27;20504;-80
2022/07/07 12:25:52;;;;;;;9.70;1.77;;;;;;;20.31;66.63;99485.03;5142792;27;20051;-81
2022/07/07 12:28:19;;;;;;;16.90;2.22;;;;;;;20.25;69.83;99474.94;5130794;27;20548;-80
2022/07/07 12:30:57;;;;;;;6.75;2.15;;;;;;;20.05;72.14;99488.25;5134156;27;20050;-80
2022/07/07 12:33:28;;;;;;;5.85;2.00;;;;;;;19.85;71.67;99475.66;5133541;27;20043;-82
2022/07/07 12:36:07;;;;;;;5.35;1.70;;;;;;;20.16;72.00;99470.88;5134327;27;20050;-81
2022/07/07 12:38:39;;;;;;;9.10;2.13;;;;;;;21.22;67.67;99465.09;5128200;27;20054;-82
2022/07/07 12:41:08;;;;;;;5.18;1.83;;;;;;;21.81;62.88;99463.13;5140000;27;20095;-82
2022/07/07 12:43:37;;;;;;;7.13;2.03;;;;;;;21.80;61.68;99465.06;5133168;27;20050;-82
2022/07/07 12:46:09;;;;;;;3.08;1.60;;;;;;;21.50;62.73;99454.31;5146879;27;20054;-83
2022/07/07 12:48:50;;;;;;;4.90;1.38;;;;;;;21.35;61.84;99466.72;5137786;27;20099;-83
2022/07/07 12:51:24;;;;;;;4.47;1.60;;;;;;;21.08;62.87;99460.97;5133581;27;20039;-83
2022/07/07 12:53:51;;;;;;;5.05;1.75;;;;;;;21.09;63.97;99451.59;5138772;27;20043;-82
2022/07/07 12:56:18;;;;;;;2.08;1.40;;;;;;;21.00;63.91;99450.28;5135823;27;20048;-82
2022/07/07 12:58:47;;;;;;;10.27;1.65;;;;;;;20.66;64.35;99470.34;5134092;27;20409;-83
2022/07/07 13:01:19;;;;;;;3.75;1.70;;;;;;;20.45;65.99;99446.94;5133070;27;20047;-82
2022/07/07 13:03:49;;;;;;;6.90;1.98;;;;;;;20.22;67.84;99461.63;5133924;27;20050;-82
2022/07/07 13:06:15;;;;;;;3.23;1.73;;;;;;;20.10;70.47;99472.69;5135357;27;20086;-82
2022/07/07 13:08:43;;;;;;;3.42;1.40;;;;;;;19.80;74.16;99443.25;5138796;27;20039;-82
2022/07/07 13:11:10;;;;;;;2.85;1.85;;;;;;;19.68;76.04;99458.94;5138475;27;20055;-81
2022/07/07 13:13:45;;;;;;;5.18;2.83;;;;;;;19.50;80.67;99481.91;5138180;27;20047;-82
2022/07/07 13:16:12;;;;;;;6.47;2.35;;;;;;;19.21;85.30;99476.19;5139968;27;20054;-80
2022/07/07 13:18:39;;;;;;;6.88;2.30;;;;;;;18.83;95.46;99515.84;5147906;27;20501;-85
2022/07/07 13:21:07;;;;;;;5.45;2.70;;;;;;;18.27;100.00;99530.66;5154646;27;20043;-82
2022/07/07 13:23:35;;;;;;;5.47;1.83;;;;;;;17.76;100.00;99519.63;5125933;27;20170;-89
2022/07/07 13:26:04;;;;;;;3.88;1.77;;;;;;;17.76;100.00;99525.13;5137180;27;20046;-81
2022/07/07 13:28:32;;;;;;;4.65;1.45;;;;;;;17.66;100.00;99535.81;5146328;27;20046;-80
2022/07/07 13:30:58;;;;;;;1.55;1.17;;;;;;;17.39;100.00;99533.22;5147011;27;20413;-79
2022/07/07 13:33:25;;;;;;;2.53;1.33;;;;;;;17.15;100.00;99527.44;5144448;27;20118;-80
2022/07/07 13:35:52;;;;;;;2.83;1.48;;;;;;;17.29;100.00;99546.59;5148933;27;20044;-80
2022/07/07 13:38:19;;;;;;;1.25;1.02;;;;;;;17.24;100.00;99528.03;5132660;27;20039;-79
2022/07/07 13:40:46;;;;;;;1.10;1.00;;;;;;;17.34;100.00;99525.66;5144495;27;20074;-78
2022/07/07 13:43:13;;;;;;;1.05;0.90;;;;;;;17.25;99.54;99559.94;5152495;27;20054;-80
2022/07/07 13:45:40;;;;;;;2.30;0.75;;;;;;;17.27;100.00;99538.56;5153214;27;20046;-79
2022/07/07 13:48:07;;;;;;;1.67;0.80;;;;;;;17.26;98.94;99567.09;5125216;27;20071;-81
2022/07/07 13:50:36;;;;;;;0.70;0.70;;;;;;;16.81;100.00;99528.59;5130366;27;20132;-78
2022/07/07 13:53:03;;;;;;;2.38;1.02;;;;;;;17.00;100.00;99543.34;5126089;27;20104;-80
2022/07/07 13:55:30;;;;;;;2.53;1.63;;;;;;;17.14;100.00;99569.69;5153498;27;20045;-80
2022/07/07 13:57:56;;;;;;;3.75;1.10;;;;;;;17.20;99.23;99532.25;5153590;27;20043;-79
2022/07/07 14:00:24;;;;;;;3.95;1.10;;;;;;;17.39;99.51;99546.09;5153271;27;20065;-80
2022/07/07 14:02:52;;;;;;;1.08;1.00;;;;;;;17.80;99.20;99569.53;5152761;27;20133;-80
2022/07/07 14:05:19;;;;;;;0.68;0.68;;;;;;;17.50;96.62;99553.66;5153988;27;20149;-79
2022/07/07 14:07:46;;;;;;;1.25;0.80;;;;;;;17.45;98.70;99569.97;5133905;27;20078;-80
2022/07/07 14:10:13;;;;;;;2.05;0.80;;;;;;;17.65;99.87;99562.44;5147382;27;20564;-79
2022/07/07 14:12:40;;;;;;;2.50;1.02;;;;;;;17.47;99.99;99543.94;5131181;27;20047;-79
2022/07/07 14:15:18;;;;;;;5.38;0.98;;;;;;;17.69;98.11;99552.69;5132233;27;20059;-78
2022/07/07 14:17:46;;;;;;;2.05;1.20;;;;;;;18.14;97.77;99557.25;5132362;27;20051;-80
2022/07/07 14:20:14;;;;;;;1.02;0.82;;;;;;;18.39;93.19;99565.47;5131805;27;20134;-79
2022/07/07 14:22:40;;;;;;;2.25;1.25;;;;;;;18.46;92.73;99546.16;5138772;27;20103;-79
2022/07/07 14:25:08;;;;;;;1.80;1.00;;;;;;;18.63;89.50;99553.81;5139705;27;20047;-80
2022/07/07 14:27:34;;;;;;;0.95;0.90;;;;;;;18.77;89.44;99557.25;5133927;27;20046;-79
2022/07/07 14:30:03;;;;;;;1.42;0.80;;;;;;;18.66;87.80;99529.41;5141016;27;20055;-79
2022/07/07 14:32:30;;;;;;;2.65;0.82;;;;;;;18.44;84.20;99530.91;5136240;27;20050;-79
2022/07/07 14:34:58;;;;;;;4.80;2.03;;;;;;;18.43;87.18;99534.72;5152858;27;20057;-80
2022/07/07 14:37:25;;;;;;;1.92;1.05;;;;;;;18.73;86.98;99545.88;5153090;27;20493;-80
2022/07/07 14:39:52;;;;;;;10.38;3.63;;;;;;;19.03;85.34;99561.63;5152345;27;20138;-80
2022/07/07 14:42:20;;;;;;;2.78;1.10;;;;;;;18.92;86.39;99563.25;5152154;27;20054;-79
2022/07/07 14:44:47;;;;;;;8.73;2.55;;;;;;;18.96;83.13;99556.22;5144991;27;20043;-80
2022/07/07 14:47:17;;;;;;;2.75;1.55;;;;;;;19.09;80.49;99560.75;5146658;27;20095;-79
2022/07/07 14:49:45;;;;;;;3.67;1.30;;;;;;;19.08;81.83;99570.06;5142296;27;20042;-79
2022/07/07 14:52:14;;;;;;;1.75;0.80;;;;;;;18.91;81.52;99545.91;5113514;27;20066;-81
2022/07/07 14:54:41;;;;;;;0.65;0.65;;;;;;;18.90;81.29;99568.16;5144401;27;20127;-80
2022/07/07 14:57:09;;;;;;;2.83;1.48;;;;;;;18.90;80.45;99569.00;5152524;27;20049;-79
2022/07/07 14:59:35;;;;;;;4.80;1.13;;;;;;;18.84;80.59;99577.31;5147089;27;20057;-81
2022/07/07 15:02:02;;;;;;;1.83;1.27;;;;;;;18.68;81.42;99571.34;5140742;27;20046;-80
2022/07/07 15:04:29;;;;;;;1.23;0.98;;;;;;;18.53;83.23;99551.56;5135492;27;20055;-80
2022/07/07 15:06:55;;;;;;;4.18;1.42;;;;;;;18.68;82.66;99564.97;5135654;27;20421;-79
2022/07/07 15:09:23;;;;;;;3.50;1.02;;;;;;;18.88;82.06;99578.59;5135865;27;20285;-79
2022/07/07 15:11:50;;;;;;;6.55;1.40;;;;;;;18.68;82.09;99568.59;5124766;27;20055;-79
2022/07/07 15:14:17;;;;;;;2.67;1.10;;;;;;;18.73;80.79;99573.41;5144798;27;20050;-80
2022/07/07 15:16:43;;;;;;;1.38;1.05;;;;;;;18.65;81.56;99548.91;5147877;27;20077;-82
2022/07/07 15:19:10;;;;;;;4.53;1.17;;;;;;;18.66;80.53;99578.97;5156385;27;20078;-80
2022/07/07 15:48:33;;;;;;;3.47;1.08;;;;;;;20.36;65.40;99567.13;5156326;27;20045;-79
2022/07/07 15:51:00;;;;;;;1.10;0.70;;;;;;;20.41;64.43;99574.69;5154422;27;20082;-79
2022/07/07 15:53:29;;;;;;;2.97;1.30;;;;;;;20.07;63.11;99583.53;5145844;27;20039;-80
2022/07/07 15:55:56;;;;;;;3.83;1.10;;;;;;;20.13;62.36;99596.38;5156065;27;20054;-79
2022/07/07 15:58:23;;;;;;;4.28;0.73;;;;;;;20.01;62.98;99570.69;5157479;27;20065;-80
2022/07/07 16:00:49;;;;;;;3.45;1.30;;;;;;;20.06;62.56;99584.63;5156890;27;20456;-79
2022/07/07 16:03:16;;;;;;;5.20;1.02;;;;;;;20.00;62.51;99577.28;5141774;27;20053;-79
2022/07/07 16:05:46;;;;;;;1.50;0.70;;;;;;;20.17;62.88;99593.97;5156202;27;20078;-79
2022/07/07 16:08:13;;;;;;;2.95;0.90;;;;;;;20.11;62.84;99573.72;5147515;27;20052;-78
2022/07/07 16:10:40;;;;;;;1.77;0.85;;;;;;;20.16;61.77;99587.63;5138235;27;20079;-79
2022/07/07 16:13:06;;;;;;;6.28;0.80;;;;;;;20.28;60.99;99589.59;5151649;27;20054;-79
2022/07/07 16:15:33;;;;;;;4.53;0.85;;;;;;;20.30;60.12;99601.22;5155760;27;20055;-80
2022/07/07 16:18:00;;;;;;;3.97;0.88;;;;;;;20.18;61.73;99595.69;5155653;27;20055;-79
2022/07/07 16:20:26;;;;;;;4.00;0.80;;;;;;;20.27;61.55;99588.72;5155077;27;20533;-79
2022/07/07 16:22:54;;;;;;;1.20;0.82;;;;;;;20.24;60.74;99608.53;5154252;27;20049;-79
2022/07/07 16:25:21;;;;;;;0.95;0.55;;;;;;;20.44;62.27;99605.41;5144245;27;20423;-79
2022/07/07 16:27:48;;;;;;;2.35;1.10;;;;;;;20.09;60.13;99584.13;5145080;27;20480;-80
2022/07/07 16:30:17;;;;;;;2.70;0.75;;;;;;;20.03;60.88;99603.56;5149568;27;20043;-79
2022/07/07 17:09:46;;;;;;;3.20;0.60;;;;;;;19.34;63.99;99623.16;5156355;27;20041;-81
2022/07/07 17:12:13;;;;;;;3.28;0.95;;;;;;;19.38;64.29;99649.22;5156508;27;20054;-81
2022/07/07 17:14:40;;;;;;;1.23;0.77;;;;;;;19.14;65.59;99648.22;5157160;27;20051;-81
2022/07/07 17:17:09;;;;;;;1.13;0.80;;;;;;;19.04;65.53;99651.50;5148972;27;20379;-79
2022/07/07 17:19:36;;;;;;;2.50;0.90;;;;;;;18.80;65.57;99639.44;5151875;27;20055;-79
2022/07/07 17:22:05;;;;;;;3.70;0.80;;;;;;;18.73;65.47;99637.59;5140317;27;20051;-80
2022/07/07 17:24:32;;;;;;;3.03;0.80;;;;;;;18.86;66.25;99655.94;5136911;27;20073;-79
2022/07/07 17:27:00;;;;;;;2.05;0.90;;;;;;;18.85;65.92;99653.38;5137010;27;20055;-79
2022/07/07 17:29:27;;;;;;;3.17;1.10;;;;;;;18.61;65.93;99642.16;5137481;27;20340;-80
2022/07/07 17:31:58;;;;;;;7.53;1.20;;;;;;;18.83;66.13;99659.09;5116192;27;20126;-79
2022/07/07 17:34:25;;;;;;;3.05;0.77;;;;;;;18.65;66.67;99650.78;5140205;27;20405;-81
2022/07/07 18:00:44;;;;;;;2.25;0.60;;;;;;;18.04;69.65;99662.28;5134929;27;20409;-80
2022/07/07 18:03:11;;;;;;;3.42;0.77;;;;;;;18.15;70.03;99696.50;5144039;27;20049;-78
2022/07/07 18:05:38;;;;;;;6.45;0.90;;;;;;;17.94;70.47;99689.41;5146317;27;20046;-80
2022/07/07 18:08:05;;;;;;;2.40;0.65;;;;;;;17.96;70.58;99684.56;5144293;27;20050;-81
2022/07/07 18:10:31;;;;;;;2.92;0.80;;;;;;;17.92;71.23;99698.97;5152802;27;20046;-80
2022/07/07 18:12:58;;;;;;;4.13;0.80;;;;;;;17.97;71.66;99701.91;5143038;27;20047;-80
2022/07/07 18:15:30;;;;;;;1.20;0.70;;;;;;;17.87;71.74;99710.59;5152507;27;20107;-79
2022/07/07 18:17:59;;;;;;;1.02;0.77;;;;;;;17.73;71.99;99697.97;5152848;27;20119;-80
2022/07/07 18:20:26;;;;;;;2.13;1.00;;;;;;;17.75;73.35;99701.34;5153045;27;20114;-80
2022/07/07 18:22:54;;;;;;;1.60;0.90;;;;;;;17.84;72.60;99708.31;5151734;27;20051;-79
2022/07/07 18:25:21;;;;;;;0.88;0.50;;;;;;;17.84;71.97;99705.56;5152578;27;20497;-80
2022/07/07 18:27:48;;;;;;;5.05;0.93;;;;;;;17.80;72.27;99705.13;5147225;27;20054;-80
2022/07/07 18:50:48;;;;;;;2.28;0.98;;;;;;;17.75;74.41;99748.09;5166434;27;20069;-79
2022/07/07 18:53:14;;;;;;;4.50;1.23;;;;;;;17.74;73.69;99743.66;5165153;27;20071;-80
2022/07/07 19:05:49;;;;;;;3.10;1.00;;;;;;;17.68;74.47;99750.88;5142320;27;20041;-79
2022/07/07 19:08:16;;;;;;;5.50;1.23;;;;;;;17.58;74.53;99728.47;5141831;27;20388;-80
2022/07/07 19:10:43;;;;;;;2.40;0.77;;;;;;;17.64;74.56;99766.09;5142489;27;20557;-79
2022/07/07 19:13:11;;;;;;;3.00;1.00;;;;;;;17.63;74.85;99765.28;5142911;27;20081;-80
2022/07/07 19:15:38;;;;;;;0.85;0.70;;;;;;;17.45;74.98;99743.97;5146936;27;20088;-80
2022/07/07 19:18:05;;;;;;;4.93;1.20;;;;;;;17.60;75.14;99768.47;5161945;27;20117;-80
